sensor_id;sensor_type;location;lat;lon;timestamp;P1;durP1;ratioP1;P2;durP2;ratioP2
51228;SDS011;37304;52.216;6.874;2022-12-18T00:00:48;27.05;;;12.48;;
51228;SDS011;37304;52.216;6.874;2022-12-18T00:05:49;19.13;;;8.93;;
51228;SDS011;37304;52.216;6.874;2022-12-18T00:10:50;25.25;;;9.18;;
51228;SDS011;37304;52.216;6.874;2022-12-18T00:15:51;13.30;;;6.72;;
51228;SDS011;37304;52.216;6.874;2022-12-18T00:20:51;23.90;;;8.13;;
51228;SDS011;37304;52.216;6.874;2022-12-18T00:25:52;32.33;;;10.47;;
51228;SDS011;37304;52.216;6.874;2022-12-18T00:31:25;24.57;;;11.10;;
51228;SDS011;37304;52.216;6.874;2022-12-18T00:36:21;21.25;;;11.13;;
51228;SDS011;37304;52.216;6.874;2022-12-18T00:41:25;12.02;;;6.72;;
51228;SDS011;37304;52.216;6.874;2022-12-18T00:46:44;21.80;;;8.88;;
51228;SDS011;37304;52.216;6.874;2022-12-18T00:51:46;25.05;;;9.18;;
51228;SDS011;37304;52.216;6.874;2022-12-18T00:56:47;22.40;;;7.50;;
51228;SDS011;37304;52.216;6.874;2022-12-18T01:01:47;19.57;;;9.07;;
51228;SDS011;37304;52.216;6.874;2022-12-18T01:06:48;12.73;;;6.47;;
51228;SDS011;37304;52.216;6.874;2022-12-18T01:11:48;14.17;;;7.93;;
51228;SDS011;37304;52.216;6.874;2022-12-18T01:16:49;14.73;;;6.07;;
51228;SDS011;37304;52.216;6.874;2022-12-18T01:21:50;13.10;;;7.47;;
51228;SDS011;37304;52.216;6.874;2022-12-18T01:26:50;12.90;;;9.37;;
51228;SDS011;37304;52.216;6.874;2022-12-18T01:31:50;9.37;;;6.07;;
51228;SDS011;37304;52.216;6.874;2022-12-18T01:36:51;18.92;;;5.90;;
51228;SDS011;37304;52.216;6.874;2022-12-18T01:41:54;12.30;;;5.38;;
51228;SDS011;37304;52.216;6.874;2022-12-18T01:47:03;15.65;;;5.70;;
51228;SDS011;37304;52.216;6.874;2022-12-18T01:52:04;16.83;;;7.70;;
51228;SDS011;37304;52.216;6.874;2022-12-18T01:57:05;18.00;;;7.40;;
51228;SDS011;37304;52.216;6.874;2022-12-18T02:02:05;7.70;;;4.80;;
51228;SDS011;37304;52.216;6.874;2022-12-18T02:12:19;17.80;;;7.05;;
51228;SDS011;37304;52.216;6.874;2022-12-18T02:17:23;20.63;;;8.18;;
51228;SDS011;37304;52.216;6.874;2022-12-18T02:27:55;18.10;;;7.38;;
51228;SDS011;37304;52.216;6.874;2022-12-18T02:32:59;11.77;;;4.68;;
51228;SDS011;37304;52.216;6.874;2022-12-18T02:38:04;19.38;;;7.18;;
51228;SDS011;37304;52.216;6.874;2022-12-18T02:43:09;14.75;;;6.07;;
51228;SDS011;37304;52.216;6.874;2022-12-18T02:48:10;11.63;;;5.40;;
51228;SDS011;37304;52.216;6.874;2022-12-18T02:53:17;11.98;;;4.78;;
51228;SDS011;37304;52.216;6.874;2022-12-18T03:04:12;13.43;;;8.50;;
51228;SDS011;37304;52.216;6.874;2022-12-18T03:09:21;17.83;;;6.50;;
51228;SDS011;37304;52.216;6.874;2022-12-18T03:14:30;13.82;;;6.57;;
51228;SDS011;37304;52.216;6.874;2022-12-18T03:19:34;14.57;;;6.88;;
51228;SDS011;37304;52.216;6.874;2022-12-18T03:24:35;14.55;;;6.68;;
51228;SDS011;37304;52.216;6.874;2022-12-18T03:29:40;7.93;;;4.88;;
51228;SDS011;37304;52.216;6.874;2022-12-18T03:34:46;8.68;;;6.15;;
51228;SDS011;37304;52.216;6.874;2022-12-18T03:39:49;15.48;;;7.57;;
51228;SDS011;37304;52.216;6.874;2022-12-18T03:44:55;7.33;;;4.17;;
51228;SDS011;37304;52.216;6.874;2022-12-18T03:50:27;12.15;;;6.55;;
51228;SDS011;37304;52.216;6.874;2022-12-18T03:55:36;10.82;;;4.43;;
51228;SDS011;37304;52.216;6.874;2022-12-18T04:00:38;23.08;;;8.15;;
51228;SDS011;37304;52.216;6.874;2022-12-18T04:05:39;11.07;;;5.55;;
51228;SDS011;37304;52.216;6.874;2022-12-18T04:10:43;6.85;;;3.28;;
51228;SDS011;37304;52.216;6.874;2022-12-18T04:15:43;10.67;;;4.23;;
51228;SDS011;37304;52.216;6.874;2022-12-18T04:20:43;5.80;;;3.03;;
51228;SDS011;37304;52.216;6.874;2022-12-18T04:25:45;11.07;;;5.73;;
51228;SDS011;37304;52.216;6.874;2022-12-18T04:30:47;9.63;;;4.47;;
51228;SDS011;37304;52.216;6.874;2022-12-18T04:35:47;4.30;;;2.53;;
51228;SDS011;37304;52.216;6.874;2022-12-18T04:40:47;6.83;;;4.57;;
51228;SDS011;37304;52.216;6.874;2022-12-18T04:45:48;11.20;;;5.37;;
51228;SDS011;37304;52.216;6.874;2022-12-18T04:50:48;8.70;;;4.43;;
51228;SDS011;37304;52.216;6.874;2022-12-18T04:55:49;7.97;;;5.20;;
51228;SDS011;37304;52.216;6.874;2022-12-18T05:00:49;8.17;;;3.27;;
51228;SDS011;37304;52.216;6.874;2022-12-18T05:05:50;10.23;;;4.90;;
51228;SDS011;37304;52.216;6.874;2022-12-18T05:11:04;10.35;;;6.93;;
51228;SDS011;37304;52.216;6.874;2022-12-18T05:16:06;13.60;;;4.47;;
51228;SDS011;37304;52.216;6.874;2022-12-18T05:21:07;9.35;;;4.90;;
51228;SDS011;37304;52.216;6.874;2022-12-18T05:26:08;11.70;;;4.97;;
51228;SDS011;37304;52.216;6.874;2022-12-18T05:31:14;6.70;;;4.32;;
51228;SDS011;37304;52.216;6.874;2022-12-18T05:36:14;9.10;;;3.63;;
51228;SDS011;37304;52.216;6.874;2022-12-18T05:41:15;10.45;;;2.60;;
51228;SDS011;37304;52.216;6.874;2022-12-18T05:46:17;7.65;;;4.53;;
51228;SDS011;37304;52.216;6.874;2022-12-18T05:51:19;13.27;;;5.38;;
51228;SDS011;37304;52.216;6.874;2022-12-18T05:56:21;14.05;;;5.90;;
51228;SDS011;37304;52.216;6.874;2022-12-18T06:01:23;6.75;;;3.63;;
51228;SDS011;37304;52.216;6.874;2022-12-18T06:06:26;8.27;;;4.03;;
51228;SDS011;37304;52.216;6.874;2022-12-18T06:11:28;5.35;;;4.13;;
51228;SDS011;37304;52.216;6.874;2022-12-18T06:16:29;7.03;;;4.43;;
51228;SDS011;37304;52.216;6.874;2022-12-18T06:21:30;8.75;;;4.70;;
51228;SDS011;37304;52.216;6.874;2022-12-18T06:26:31;10.55;;;4.60;;
51228;SDS011;37304;52.216;6.874;2022-12-18T06:31:32;8.03;;;3.93;;
51228;SDS011;37304;52.216;6.874;2022-12-18T06:36:32;3.92;;;3.63;;
51228;SDS011;37304;52.216;6.874;2022-12-18T06:41:33;4.73;;;3.37;;
51228;SDS011;37304;52.216;6.874;2022-12-18T06:46:33;9.13;;;5.67;;
51228;SDS011;37304;52.216;6.874;2022-12-18T06:51:33;5.90;;;3.13;;
51228;SDS011;37304;52.216;6.874;2022-12-18T06:56:34;10.33;;;3.67;;
51228;SDS011;37304;52.216;6.874;2022-12-18T07:01:34;5.93;;;2.45;;
51228;SDS011;37304;52.216;6.874;2022-12-18T07:06:35;9.27;;;2.23;;
51228;SDS011;37304;52.216;6.874;2022-12-18T07:11:35;5.83;;;3.37;;
51228;SDS011;37304;52.216;6.874;2022-12-18T07:16:35;8.40;;;4.93;;
51228;SDS011;37304;52.216;6.874;2022-12-18T07:21:36;7.77;;;5.10;;
51228;SDS011;37304;52.216;6.874;2022-12-18T07:26:36;7.97;;;3.90;;
51228;SDS011;37304;52.216;6.874;2022-12-18T07:31:36;5.60;;;4.77;;
51228;SDS011;37304;52.216;6.874;2022-12-18T07:36:37;3.93;;;2.90;;
51228;SDS011;37304;52.216;6.874;2022-12-18T07:41:37;5.10;;;2.37;;
51228;SDS011;37304;52.216;6.874;2022-12-18T07:46:38;11.73;;;4.53;;
51228;SDS011;37304;52.216;6.874;2022-12-18T07:51:38;16.43;;;5.37;;
51228;SDS011;37304;52.216;6.874;2022-12-18T07:56:39;8.73;;;3.73;;
51228;SDS011;37304;52.216;6.874;2022-12-18T08:01:39;3.50;;;2.37;;
51228;SDS011;37304;52.216;6.874;2022-12-18T08:06:39;4.33;;;2.40;;
51228;SDS011;37304;52.216;6.874;2022-12-18T08:11:43;5.95;;;3.65;;
51228;SDS011;37304;52.216;6.874;2022-12-18T08:16:43;8.32;;;4.15;;
51228;SDS011;37304;52.216;6.874;2022-12-18T08:21:44;7.23;;;4.37;;
51228;SDS011;37304;52.216;6.874;2022-12-18T08:26:44;9.93;;;3.30;;
51228;SDS011;37304;52.216;6.874;2022-12-18T08:31:44;4.73;;;3.60;;
51228;SDS011;37304;52.216;6.874;2022-12-18T08:36:45;9.57;;;4.03;;
51228;SDS011;37304;52.216;6.874;2022-12-18T08:41:45;5.53;;;3.10;;
51228;SDS011;37304;52.216;6.874;2022-12-18T08:47:06;11.93;;;3.88;;
51228;SDS011;37304;52.216;6.874;2022-12-18T08:52:07;15.98;;;3.88;;
51228;SDS011;37304;52.216;6.874;2022-12-18T08:57:07;10.45;;;3.47;;
51228;SDS011;37304;52.216;6.874;2022-12-18T09:02:09;10.30;;;3.83;;
51228;SDS011;37304;52.216;6.874;2022-12-18T09:07:10;15.05;;;5.53;;
51228;SDS011;37304;52.216;6.874;2022-12-18T09:12:14;3.30;;;2.37;;
51228;SDS011;37304;52.216;6.874;2022-12-18T09:17:17;10.52;;;3.70;;
51228;SDS011;37304;52.216;6.874;2022-12-18T09:22:18;11.60;;;5.40;;
51228;SDS011;37304;52.216;6.874;2022-12-18T09:27:19;4.47;;;2.83;;
51228;SDS011;37304;52.216;6.874;2022-12-18T09:32:20;6.80;;;4.63;;
51228;SDS011;37304;52.216;6.874;2022-12-18T09:37:27;8.60;;;4.53;;
51228;SDS011;37304;52.216;6.874;2022-12-18T09:42:38;13.45;;;5.47;;
51228;SDS011;37304;52.216;6.874;2022-12-18T09:47:39;10.20;;;5.00;;
51228;SDS011;37304;52.216;6.874;2022-12-18T09:52:45;9.55;;;4.38;;
51228;SDS011;37304;52.216;6.874;2022-12-18T09:57:51;8.10;;;4.13;;
51228;SDS011;37304;52.216;6.874;2022-12-18T10:03:02;7.85;;;4.20;;
51228;SDS011;37304;52.216;6.874;2022-12-18T10:18:46;8.95;;;3.58;;
51228;SDS011;37304;52.216;6.874;2022-12-18T10:29:17;5.30;;;3.33;;
51228;SDS011;37304;52.216;6.874;2022-12-18T10:34:19;5.07;;;2.92;;
51228;SDS011;37304;52.216;6.874;2022-12-18T10:39:23;10.63;;;4.80;;
51228;SDS011;37304;52.216;6.874;2022-12-18T10:44:26;10.18;;;3.85;;
51228;SDS011;37304;52.216;6.874;2022-12-18T10:49:27;8.97;;;4.37;;
51228;SDS011;37304;52.216;6.874;2022-12-18T10:54:31;6.78;;;3.33;;
51228;SDS011;37304;52.216;6.874;2022-12-18T10:59:33;7.13;;;4.30;;
51228;SDS011;37304;52.216;6.874;2022-12-18T11:04:51;7.25;;;3.40;;
51228;SDS011;37304;52.216;6.874;2022-12-18T11:10:00;5.85;;;3.55;;
51228;SDS011;37304;52.216;6.874;2022-12-18T11:15:01;3.80;;;2.67;;
51228;SDS011;37304;52.216;6.874;2022-12-18T11:20:05;7.97;;;2.90;;
51228;SDS011;37304;52.216;6.874;2022-12-18T11:25:18;7.35;;;3.75;;
51228;SDS011;37304;52.216;6.874;2022-12-18T11:35:42;5.82;;;4.22;;
51228;SDS011;37304;52.216;6.874;2022-12-18T11:40:49;12.38;;;5.43;;
51228;SDS011;37304;52.216;6.874;2022-12-18T11:45:57;6.65;;;3.75;;
51228;SDS011;37304;52.216;6.874;2022-12-18T11:51:03;5.25;;;3.15;;
51228;SDS011;37304;52.216;6.874;2022-12-18T12:39:17;5.75;;;2.33;;
51228;SDS011;37304;52.216;6.874;2022-12-18T12:44:32;7.30;;;4.05;;
51228;SDS011;37304;52.216;6.874;2022-12-18T12:49:44;11.73;;;3.80;;
51228;SDS011;37304;52.216;6.874;2022-12-18T12:54:47;5.38;;;3.20;;
51228;SDS011;37304;52.216;6.874;2022-12-18T13:00:04;5.03;;;2.95;;
51228;SDS011;37304;52.216;6.874;2022-12-18T13:05:16;5.65;;;2.88;;
51228;SDS011;37304;52.216;6.874;2022-12-18T13:15:39;7.75;;;4.72;;
51228;SDS011;37304;52.216;6.874;2022-12-18T13:21:03;7.20;;;3.30;;
51228;SDS011;37304;52.216;6.874;2022-12-18T13:36:39;8.48;;;4.30;;
51228;SDS011;37304;52.216;6.874;2022-12-18T13:41:41;8.35;;;4.68;;
51228;SDS011;37304;52.216;6.874;2022-12-18T13:46:43;6.05;;;3.20;;
51228;SDS011;37304;52.216;6.874;2022-12-18T13:51:46;5.88;;;3.55;;
51228;SDS011;37304;52.216;6.874;2022-12-18T13:56:48;4.22;;;2.67;;
51228;SDS011;37304;52.216;6.874;2022-12-18T14:01:50;7.07;;;3.75;;
51228;SDS011;37304;52.216;6.874;2022-12-18T14:06:57;5.75;;;3.58;;
51228;SDS011;37304;52.216;6.874;2022-12-18T14:12:02;8.10;;;2.97;;
51228;SDS011;37304;52.216;6.874;2022-12-18T14:17:22;4.53;;;2.45;;
51228;SDS011;37304;52.216;6.874;2022-12-18T14:22:47;5.15;;;3.88;;
51228;SDS011;37304;52.216;6.874;2022-12-18T14:28:31;5.03;;;2.60;;
51228;SDS011;37304;52.216;6.874;2022-12-18T14:33:10;10.82;;;4.45;;
51228;SDS011;37304;52.216;6.874;2022-12-18T14:43:16;8.55;;;4.25;;
51228;SDS011;37304;52.216;6.874;2022-12-18T14:48:24;9.32;;;2.92;;
51228;SDS011;37304;52.216;6.874;2022-12-18T14:53:34;9.57;;;3.88;;
51228;SDS011;37304;52.216;6.874;2022-12-18T14:58:37;9.90;;;5.28;;
51228;SDS011;37304;52.216;6.874;2022-12-18T15:03:42;5.43;;;3.83;;
51228;SDS011;37304;52.216;6.874;2022-12-18T15:08:47;12.57;;;4.65;;
51228;SDS011;37304;52.216;6.874;2022-12-18T15:13:47;7.90;;;3.80;;
51228;SDS011;37304;52.216;6.874;2022-12-18T15:18:48;8.52;;;3.75;;
51228;SDS011;37304;52.216;6.874;2022-12-18T15:23:52;11.27;;;4.35;;
51228;SDS011;37304;52.216;6.874;2022-12-18T15:28:54;7.25;;;3.90;;
51228;SDS011;37304;52.216;6.874;2022-12-18T15:38:58;5.32;;;2.70;;
51228;SDS011;37304;52.216;6.874;2022-12-18T15:43:59;11.77;;;3.63;;
51228;SDS011;37304;52.216;6.874;2022-12-18T15:48:59;8.55;;;4.35;;
51228;SDS011;37304;52.216;6.874;2022-12-18T15:54:15;12.30;;;4.93;;
51228;SDS011;37304;52.216;6.874;2022-12-18T15:59:17;10.02;;;5.28;;
51228;SDS011;37304;52.216;6.874;2022-12-18T16:04:20;10.38;;;5.20;;
51228;SDS011;37304;52.216;6.874;2022-12-18T16:09:21;11.15;;;5.60;;
51228;SDS011;37304;52.216;6.874;2022-12-18T16:14:22;10.87;;;4.77;;
51228;SDS011;37304;52.216;6.874;2022-12-18T16:19:26;4.57;;;3.10;;
51228;SDS011;37304;52.216;6.874;2022-12-18T16:24:29;10.30;;;4.47;;
51228;SDS011;37304;52.216;6.874;2022-12-18T16:29:30;5.40;;;3.72;;
51228;SDS011;37304;52.216;6.874;2022-12-18T16:34:31;14.63;;;5.33;;
51228;SDS011;37304;52.216;6.874;2022-12-18T16:39:34;11.27;;;5.85;;
51228;SDS011;37304;52.216;6.874;2022-12-18T16:44:35;7.18;;;4.32;;
51228;SDS011;37304;52.216;6.874;2022-12-18T16:49:35;10.50;;;6.03;;
51228;SDS011;37304;52.216;6.874;2022-12-18T16:54:36;12.20;;;4.80;;
51228;SDS011;37304;52.216;6.874;2022-12-18T16:59:36;7.90;;;3.53;;
51228;SDS011;37304;52.216;6.874;2022-12-18T17:04:36;8.90;;;4.90;;
51228;SDS011;37304;52.216;6.874;2022-12-18T17:09:37;6.03;;;3.47;;
51228;SDS011;37304;52.216;6.874;2022-12-18T17:14:38;9.30;;;4.18;;
51228;SDS011;37304;52.216;6.874;2022-12-18T17:19:38;8.40;;;4.30;;
51228;SDS011;37304;52.216;6.874;2022-12-18T17:24:39;10.30;;;4.32;;
51228;SDS011;37304;52.216;6.874;2022-12-18T17:29:39;11.00;;;4.17;;
51228;SDS011;37304;52.216;6.874;2022-12-18T17:34:40;10.27;;;5.25;;
51228;SDS011;37304;52.216;6.874;2022-12-18T17:39:40;11.53;;;5.97;;
51228;SDS011;37304;52.216;6.874;2022-12-18T17:44:41;8.23;;;4.45;;
51228;SDS011;37304;52.216;6.874;2022-12-18T17:49:42;7.00;;;4.38;;
51228;SDS011;37304;52.216;6.874;2022-12-18T17:54:42;12.73;;;5.57;;
51228;SDS011;37304;52.216;6.874;2022-12-18T17:59:43;7.87;;;4.80;;
51228;SDS011;37304;52.216;6.874;2022-12-18T18:04:43;9.33;;;5.43;;
51228;SDS011;37304;52.216;6.874;2022-12-18T18:09:44;11.13;;;3.97;;
51228;SDS011;37304;52.216;6.874;2022-12-18T18:14:44;8.23;;;4.70;;
51228;SDS011;37304;52.216;6.874;2022-12-18T18:19:44;9.00;;;5.53;;
51228;SDS011;37304;52.216;6.874;2022-12-18T18:24:45;9.23;;;5.50;;
51228;SDS011;37304;52.216;6.874;2022-12-18T18:29:45;14.90;;;6.38;;
51228;SDS011;37304;52.216;6.874;2022-12-18T18:34:46;11.52;;;5.43;;
51228;SDS011;37304;52.216;6.874;2022-12-18T18:39:47;14.27;;;7.03;;
51228;SDS011;37304;52.216;6.874;2022-12-18T18:44:47;12.93;;;6.50;;
51228;SDS011;37304;52.216;6.874;2022-12-18T18:49:54;15.77;;;7.20;;
51228;SDS011;37304;52.216;6.874;2022-12-18T18:54:54;15.55;;;5.60;;
51228;SDS011;37304;52.216;6.874;2022-12-18T18:59:54;12.73;;;6.53;;
51228;SDS011;37304;52.216;6.874;2022-12-18T19:04:55;13.80;;;7.30;;
51228;SDS011;37304;52.216;6.874;2022-12-18T19:09:57;12.18;;;5.82;;
51228;SDS011;37304;52.216;6.874;2022-12-18T19:15:01;12.00;;;5.95;;
51228;SDS011;37304;52.216;6.874;2022-12-18T19:20:27;13.68;;;4.00;;
51228;SDS011;37304;52.216;6.874;2022-12-18T19:25:28;10.32;;;4.20;;
51228;SDS011;37304;52.216;6.874;2022-12-18T19:30:32;15.38;;;6.78;;
51228;SDS011;37304;52.216;6.874;2022-12-18T19:35:48;14.48;;;6.93;;
51228;SDS011;37304;52.216;6.874;2022-12-18T19:40:48;16.33;;;7.72;;
51228;SDS011;37304;52.216;6.874;2022-12-18T19:45:55;11.95;;;5.68;;
51228;SDS011;37304;52.216;6.874;2022-12-18T19:51:02;9.38;;;4.75;;
51228;SDS011;37304;52.216;6.874;2022-12-18T19:56:25;12.65;;;6.05;;
51228;SDS011;37304;52.216;6.874;2022-12-18T20:06:51;16.02;;;6.32;;
51228;SDS011;37304;52.216;6.874;2022-12-18T20:11:53;13.50;;;6.50;;
51228;SDS011;37304;52.216;6.874;2022-12-18T20:16:54;13.43;;;6.75;;
51228;SDS011;37304;52.216;6.874;2022-12-18T20:21:58;17.73;;;8.07;;
51228;SDS011;37304;52.216;6.874;2022-12-18T20:27:01;19.75;;;8.23;;
51228;SDS011;37304;52.216;6.874;2022-12-18T20:32:03;12.52;;;6.88;;
51228;SDS011;37304;52.216;6.874;2022-12-18T20:37:07;14.98;;;7.50;;
51228;SDS011;37304;52.216;6.874;2022-12-18T20:42:07;15.27;;;7.70;;
51228;SDS011;37304;52.216;6.874;2022-12-18T20:47:07;9.37;;;4.37;;
51228;SDS011;37304;52.216;6.874;2022-12-18T20:52:11;13.10;;;5.43;;
51228;SDS011;37304;52.216;6.874;2022-12-18T20:57:11;14.75;;;6.50;;
51228;SDS011;37304;52.216;6.874;2022-12-18T21:02:15;15.40;;;7.85;;
51228;SDS011;37304;52.216;6.874;2022-12-18T21:07:25;11.63;;;7.25;;
51228;SDS011;37304;52.216;6.874;2022-12-18T21:12:34;17.63;;;7.07;;
51228;SDS011;37304;52.216;6.874;2022-12-18T21:17:48;18.10;;;6.43;;
51228;SDS011;37304;52.216;6.874;2022-12-18T21:22:49;9.63;;;5.32;;
51228;SDS011;37304;52.216;6.874;2022-12-18T21:27:49;18.42;;;8.25;;
51228;SDS011;37304;52.216;6.874;2022-12-18T21:32:51;15.77;;;8.23;;
51228;SDS011;37304;52.216;6.874;2022-12-18T21:37:51;20.38;;;8.77;;
51228;SDS011;37304;52.216;6.874;2022-12-18T21:42:52;18.80;;;8.50;;
51228;SDS011;37304;52.216;6.874;2022-12-18T21:48:10;15.80;;;7.57;;
51228;SDS011;37304;52.216;6.874;2022-12-18T21:53:11;17.70;;;8.07;;
51228;SDS011;37304;52.216;6.874;2022-12-18T21:58:11;20.40;;;9.33;;
51228;SDS011;37304;52.216;6.874;2022-12-18T22:03:12;21.55;;;8.88;;
51228;SDS011;37304;52.216;6.874;2022-12-18T22:08:12;18.90;;;8.57;;
51228;SDS011;37304;52.216;6.874;2022-12-18T22:13:14;16.55;;;7.68;;
51228;SDS011;37304;52.216;6.874;2022-12-18T22:18:14;19.67;;;8.87;;
51228;SDS011;37304;52.216;6.874;2022-12-18T22:23:17;25.97;;;9.53;;
51228;SDS011;37304;52.216;6.874;2022-12-18T22:28:17;20.92;;;9.90;;
51228;SDS011;37304;52.216;6.874;2022-12-18T22:33:36;17.05;;;7.50;;
51228;SDS011;37304;52.216;6.874;2022-12-18T22:38:37;8.83;;;5.07;;
51228;SDS011;37304;52.216;6.874;2022-12-18T22:43:40;12.63;;;6.13;;
51228;SDS011;37304;52.216;6.874;2022-12-18T22:48:43;12.60;;;7.50;;
51228;SDS011;37304;52.216;6.874;2022-12-18T22:53:44;24.20;;;10.30;;
51228;SDS011;37304;52.216;6.874;2022-12-18T22:58:46;21.08;;;8.75;;
51228;SDS011;37304;52.216;6.874;2022-12-18T23:03:48;20.48;;;8.55;;
51228;SDS011;37304;52.216;6.874;2022-12-18T23:08:49;23.05;;;9.60;;
51228;SDS011;37304;52.216;6.874;2022-12-18T23:13:50;18.55;;;8.73;;
51228;SDS011;37304;52.216;6.874;2022-12-18T23:18:54;17.55;;;7.45;;
51228;SDS011;37304;52.216;6.874;2022-12-18T23:23:56;11.18;;;6.07;;
51228;SDS011;37304;52.216;6.874;2022-12-18T23:28:57;14.20;;;6.68;;
51228;SDS011;37304;52.216;6.874;2022-12-18T23:33:57;19.80;;;8.73;;
51228;SDS011;37304;52.216;6.874;2022-12-18T23:38:59;20.65;;;9.57;;
51228;SDS011;37304;52.216;6.874;2022-12-18T23:44:00;20.35;;;7.75;;
51228;SDS011;37304;52.216;6.874;2022-12-18T23:49:03;13.23;;;5.22;;
51228;SDS011;37304;52.216;6.874;2022-12-18T23:54:04;20.60;;;8.88;;
51228;SDS011;37304;52.216;6.874;2022-12-18T23:59:05;24.13;;;7.53;;
